Time;durP1;ratioP1;P1;durP2;ratioP2;P2;SDS_P1;SDS_P2;PMS_P1;PMS_P2;Temp;Humidity;BMP_temperature;BMP_pressure;BME280_temperature;BME280_humidity;BME280_pressure;Samples;Min_cycle;Max_cycle;Signal;HPM_P1;HPM_P2
2023/12/03 00:00:10;;;;;;;1999.90;999.90;;;;;;;;;;5028482;28;20613;-67
2023/12/03 00:02:38;;;;;;;1999.90;999.90;;;;;;;;;;5026462;28;20198;-67
2023/12/03 00:05:06;;;;;;;1999.90;999.90;;;;;;;;;;5027959;28;20199;-67
2023/12/03 00:07:35;;;;;;;1999.90;999.90;;;;;;;;;;5026148;28;20197;-67
2023/12/03 00:10:02;;;;;;;1999.90;999.90;;;;;;;;;;5027658;28;20209;-67
2023/12/03 00:12:30;;;;;;;1999.90;999.90;;;;;;;;;;5028167;28;20237;-67
2023/12/03 00:14:57;;;;;;;1999.90;999.90;;;;;;;;;;5014596;28;20199;-67
2023/12/03 00:17:25;;;;;;;1999.90;999.90;;;;;;;;;;5011101;28;20307;-67
2023/12/03 00:19:52;;;;;;;1999.90;999.90;;;;;;;;;;5010143;28;20289;-67
2023/12/03 00:22:19;;;;;;;1999.90;999.90;;;;;;;;;;5011076;28;20846;-67
2023/12/03 00:24:48;;;;;;;1999.90;999.90;;;;;;;;;;5009963;28;20246;-67
2023/12/03 00:27:15;;;;;;;1999.90;999.90;;;;;;;;;;5009815;28;20209;-66
2023/12/03 00:29:43;;;;;;;1999.90;999.90;;;;;;;;;;5010285;28;20235;-66
2023/12/03 00:32:10;;;;;;;1999.90;999.90;;;;;;;;;;5009444;28;20226;-67
2023/12/03 00:34:38;;;;;;;1999.90;999.90;;;;;;;;;;5011233;28;22152;-66
2023/12/03 00:37:06;;;;;;;1999.90;999.90;;;;;;;;;;5008332;28;20209;-67
2023/12/03 00:39:33;;;;;;;1999.90;999.90;;;;;;;;;;5011208;28;20205;-67
2023/12/03 00:42:02;;;;;;;1999.90;999.90;;;;;;;;;;5012802;28;20194;-66
2023/12/03 00:44:29;;;;;;;1999.90;999.90;;;;;;;;;;5010117;28;20213;-67
2023/12/03 00:46:56;;;;;;;1999.90;999.90;;;;;;;;;;5008385;28;20205;-67
2023/12/03 00:49:23;;;;;;;1999.90;999.90;;;;;;;;;;5009539;28;20201;-67
2023/12/03 00:51:51;;;;;;;1999.90;999.90;;;;;;;;;;5010492;28;20201;-67
2023/12/03 00:54:18;;;;;;;1999.90;999.90;;;;;;;;;;5009066;28;20409;-66
2023/12/03 00:56:45;;;;;;;1999.90;999.90;;;;;;;;;;5010456;28;20204;-66
2023/12/03 00:59:14;;;;;;;1999.90;999.90;;;;;;;;;;5009323;28;20248;-67
2023/12/03 01:01:41;;;;;;;1999.90;999.90;;;;;;;;;;5010664;28;20201;-66
2023/12/03 01:04:09;;;;;;;1999.90;999.90;;;;;;;;;;5007875;28;20201;-67
2023/12/03 01:06:36;;;;;;;1999.90;999.90;;;;;;;;;;5024003;28;20197;-67
2023/12/03 01:09:03;;;;;;;1999.90;999.90;;;;;;;;;;5027052;28;20210;-67
2023/12/03 01:11:31;;;;;;;1999.90;999.90;;;;;;;;;;5026949;28;20200;-67
2023/12/03 01:13:58;;;;;;;1999.90;999.90;;;;;;;;;;5027973;28;20719;-67
2023/12/03 01:16:27;;;;;;;1999.90;999.90;;;;;;;;;;5026087;28;20271;-66
2023/12/03 01:18:54;;;;;;;1999.90;999.90;;;;;;;;;;5027533;28;20200;-67
2023/12/03 01:21:21;;;;;;;1999.90;999.90;;;;;;;;;;5026478;28;21028;-66
2023/12/03 01:23:49;;;;;;;1999.90;999.90;;;;;;;;;;5027850;28;20574;-67
2023/12/03 01:26:16;;;;;;;1999.90;999.90;;;;;;;;;;5026538;28;20217;-67
2023/12/03 01:28:43;;;;;;;1999.90;999.90;;;;;;;;;;5026450;28;20300;-67
2023/12/03 01:31:10;;;;;;;1999.90;999.90;;;;;;;;;;5009409;28;20205;-67
2023/12/03 01:33:39;;;;;;;1999.90;999.90;;;;;;;;;;5025306;28;20216;-67
2023/12/03 01:36:07;;;;;;;1999.90;999.90;;;;;;;;;;5026464;28;20203;-68
2023/12/03 01:38:35;;;;;;;1999.90;999.90;;;;;;;;;;5026060;28;20201;-67
2023/12/03 01:41:02;;;;;;;1999.90;999.90;;;;;;;;;;5027785;28;20731;-67
2023/12/03 01:43:30;;;;;;;1999.90;999.90;;;;;;;;;;5026851;28;20650;-67
2023/12/03 01:45:57;;;;;;;1999.90;999.90;;;;;;;;;;5026615;28;20203;-68
2023/12/03 01:48:25;;;;;;;1999.90;999.90;;;;;;;;;;5025917;28;20908;-67
2023/12/03 01:50:54;;;;;;;1999.90;999.90;;;;;;;;;;5026573;28;20189;-67
2023/12/03 01:53:21;;;;;;;1999.90;999.90;;;;;;;;;;5026706;28;20217;-69
2023/12/03 01:55:49;;;;;;;1999.90;999.90;;;;;;;;;;5026035;28;20214;-68
2023/12/03 01:58:16;;;;;;;1999.90;999.90;;;;;;;;;;5027147;28;20185;-66
2023/12/03 02:00:43;;;;;;;1999.90;999.90;;;;;;;;;;5026023;28;20791;-67
2023/12/03 02:03:11;;;;;;;1999.90;999.90;;;;;;;;;;5026796;28;20613;-67
2023/12/03 02:05:38;;;;;;;1999.90;999.90;;;;;;;;;;5025917;28;20204;-67
2023/12/03 02:08:07;;;;;;;1999.90;999.90;;;;;;;;;;5016516;28;20189;-67
2023/12/03 02:10:34;;;;;;;1999.90;999.90;;;;;;;;;;5028037;28;20209;-67
2023/12/03 02:13:02;;;;;;;1999.90;999.90;;;;;;;;;;5029168;28;20234;-67
2023/12/03 02:15:29;;;;;;;1999.90;999.90;;;;;;;;;;5028901;28;20280;-67
2023/12/03 02:17:57;;;;;;;1999.90;999.90;;;;;;;;;;5028347;28;20573;-67
2023/12/03 02:20:24;;;;;;;1999.90;999.90;;;;;;;;;;5030178;28;20511;-67
2023/12/03 02:23:02;;;;;;;1999.90;999.90;;;;;;;;;;5030757;28;20213;-67
2023/12/03 02:25:30;;;;;;;1999.90;999.90;;;;;;;;;;5028694;28;20571;-67
2023/12/03 02:27:57;;;;;;;1999.90;999.90;;;;;;;;;;5030595;28;20990;-67
2023/12/03 02:30:24;;;;;;;1999.90;999.90;;;;;;;;;;5029432;28;20196;-67
2023/12/03 02:32:52;;;;;;;1999.90;999.90;;;;;;;;;;5030284;28;20223;-67
2023/12/03 02:35:19;;;;;;;1999.90;999.90;;;;;;;;;;5028501;28;20189;-67
2023/12/03 02:37:46;;;;;;;1999.90;999.90;;;;;;;;;;5029711;28;20202;-67
2023/12/03 02:40:15;;;;;;;1999.90;999.90;;;;;;;;;;5030015;28;20203;-67
2023/12/03 02:42:43;;;;;;;1999.90;999.90;;;;;;;;;;5029782;28;20542;-67
2023/12/03 02:45:11;;;;;;;1999.90;999.90;;;;;;;;;;5029572;28;20194;-67
2023/12/03 02:47:38;;;;;;;1999.90;999.90;;;;;;;;;;5029148;28;20202;-67
2023/12/03 02:50:06;;;;;;;1999.90;999.90;;;;;;;;;;5027353;28;20661;-67
2023/12/03 02:52:33;;;;;;;1999.90;999.90;;;;;;;;;;5028078;28;20226;-68
2023/12/03 02:55:00;;;;;;;1999.90;999.90;;;;;;;;;;5029716;28;20212;-68
2023/12/03 02:57:29;;;;;;;1999.90;999.90;;;;;;;;;;5029408;28;20285;-67
2023/12/03 02:59:56;;;;;;;1999.90;999.90;;;;;;;;;;5029474;28;20251;-68
2023/12/03 03:02:24;;;;;;;1999.90;999.90;;;;;;;;;;5029453;28;20209;-68
2023/12/03 03:04:51;;;;;;;1999.90;999.90;;;;;;;;;;5027329;28;20642;-66
2023/12/03 03:07:18;;;;;;;1999.90;999.90;;;;;;;;;;5025327;28;20201;-67
2023/12/03 03:09:46;;;;;;;1999.90;999.90;;;;;;;;;;5028575;28;20204;-68
2023/12/03 03:12:13;;;;;;;1999.90;999.90;;;;;;;;;;5028029;28;20589;-68
2023/12/03 03:14:42;;;;;;;1999.90;999.90;;;;;;;;;;5028663;28;20314;-68
2023/12/03 03:17:09;;;;;;;1999.90;999.90;;;;;;;;;;5028638;28;20202;-68
2023/12/03 03:19:36;;;;;;;1999.90;999.90;;;;;;;;;;5027605;28;20203;-68
2023/12/03 03:22:04;;;;;;;1999.90;999.90;;;;;;;;;;5027272;28;20674;-69
2023/12/03 03:24:31;;;;;;;1999.90;999.90;;;;;;;;;;5029647;28;20189;-68
2023/12/03 03:26:58;;;;;;;1999.90;999.90;;;;;;;;;;5027191;28;20206;-67
2023/12/03 03:29:26;;;;;;;1999.90;999.90;;;;;;;;;;5027616;28;20480;-67
2023/12/03 03:31:55;;;;;;;1999.90;999.90;;;;;;;;;;5022403;28;20198;-67
2023/12/03 03:34:22;;;;;;;1999.90;999.90;;;;;;;;;;5020678;28;20207;-67
2023/12/03 03:36:49;;;;;;;1999.90;999.90;;;;;;;;;;5029134;28;20190;-67
2023/12/03 03:39:17;;;;;;;1999.90;999.90;;;;;;;;;;5027954;28;20682;-67
2023/12/03 03:41:44;;;;;;;1999.90;999.90;;;;;;;;;;5028966;28;20673;-67
2023/12/03 03:44:11;;;;;;;1999.90;999.90;;;;;;;;;;5028099;28;20577;-67
2023/12/03 03:46:39;;;;;;;1999.90;999.90;;;;;;;;;;5026627;28;20208;-67
2023/12/03 03:49:07;;;;;;;1999.90;999.90;;;;;;;;;;5027911;28;20265;-67
2023/12/03 03:51:35;;;;;;;1999.90;999.90;;;;;;;;;;5027766;28;20192;-67
2023/12/03 03:54:02;;;;;;;1999.90;999.90;;;;;;;;;;5027264;28;20210;-67
2023/12/03 03:56:29;;;;;;;1999.90;999.90;;;;;;;;;;5027461;28;20203;-67
2023/12/03 03:58:57;;;;;;;1999.90;999.90;;;;;;;;;;5028968;28;20299;-67
2023/12/03 04:01:24;;;;;;;1999.90;999.90;;;;;;;;;;5027056;28;20197;-67
2023/12/03 04:03:51;;;;;;;1999.90;999.90;;;;;;;;;;5027644;28;20209;-67
2023/12/03 04:06:20;;;;;;;1999.90;999.90;;;;;;;;;;5027724;28;20195;-67
2023/12/03 04:08:48;;;;;;;1999.90;999.90;;;;;;;;;;5028031;28;20637;-67
2023/12/03 04:11:15;;;;;;;1999.90;999.90;;;;;;;;;;5027344;28;20205;-67
2023/12/03 04:13:43;;;;;;;1999.90;999.90;;;;;;;;;;5027081;28;20226;-67
2023/12/03 04:16:10;;;;;;;1999.90;999.90;;;;;;;;;;5028163;28;20202;-67
2023/12/03 04:18:39;;;;;;;1999.90;999.90;;;;;;;;;;5027302;28;20221;-67
2023/12/03 04:21:06;;;;;;;1999.90;999.90;;;;;;;;;;5028193;28;20276;-67
2023/12/03 04:23:35;;;;;;;1999.90;999.90;;;;;;;;;;5027140;28;20197;-67
2023/12/03 04:26:03;;;;;;;1999.90;999.90;;;;;;;;;;5027905;28;20198;-66
2023/12/03 04:28:30;;;;;;;1999.90;999.90;;;;;;;;;;5027730;28;20195;-67
2023/12/03 04:30:57;;;;;;;1999.90;999.90;;;;;;;;;;5027057;28;20222;-67
2023/12/03 04:33:25;;;;;;;1999.90;999.90;;;;;;;;;;5027994;28;20699;-67
2023/12/03 04:35:53;;;;;;;1999.90;999.90;;;;;;;;;;5026718;28;20189;-67
2023/12/03 04:38:20;;;;;;;1999.90;999.90;;;;;;;;;;5028011;28;20197;-67
2023/12/03 04:40:49;;;;;;;1999.90;999.90;;;;;;;;;;5024739;28;20193;-66
2023/12/03 04:43:16;;;;;;;1999.90;999.90;;;;;;;;;;5013676;28;20291;-67
2023/12/03 04:45:43;;;;;;;1999.90;999.90;;;;;;;;;;5010212;28;20198;-67
2023/12/03 04:48:11;;;;;;;1999.90;999.90;;;;;;;;;;5010236;28;20208;-67
2023/12/03 04:50:38;;;;;;;1999.90;999.90;;;;;;;;;;5009343;28;20216;-67
2023/12/03 04:53:05;;;;;;;1999.90;999.90;;;;;;;;;;5009275;28;20208;-67
2023/12/03 04:55:33;;;;;;;1999.90;999.90;;;;;;;;;;5010165;28;20207;-66
2023/12/03 04:58:01;;;;;;;1999.90;999.90;;;;;;;;;;5007892;28;20197;-66
2023/12/03 05:00:30;;;;;;;1999.90;999.90;;;;;;;;;;5010457;28;20239;-66
2023/12/03 05:02:57;;;;;;;1999.90;999.90;;;;;;;;;;5010792;28;20196;-67
2023/12/03 05:05:25;;;;;;;1999.90;999.90;;;;;;;;;;5010333;28;20201;-67
2023/12/03 05:07:52;;;;;;;1999.90;999.90;;;;;;;;;;5011874;28;20539;-67
2023/12/03 05:10:19;;;;;;;1999.90;999.90;;;;;;;;;;5008990;28;20197;-66
2023/12/03 05:12:47;;;;;;;1999.90;999.90;;;;;;;;;;5011286;28;20196;-67
2023/12/03 05:15:16;;;;;;;1999.90;999.90;;;;;;;;;;5009365;28;20252;-67
2023/12/03 05:17:43;;;;;;;1999.90;999.90;;;;;;;;;;5010696;28;20197;-66
2023/12/03 05:20:11;;;;;;;1999.90;999.90;;;;;;;;;;5009336;28;20193;-66
2023/12/03 05:22:38;;;;;;;1999.90;999.90;;;;;;;;;;5009863;28;20211;-67
2023/12/03 05:25:06;;;;;;;1999.90;999.90;;;;;;;;;;5010794;28;20229;-67
2023/12/03 05:27:33;;;;;;;1999.90;999.90;;;;;;;;;;5007551;28;20203;-66
2023/12/03 05:30:00;;;;;;;1999.90;999.90;;;;;;;;;;5009574;28;20194;-67
2023/12/03 05:32:29;;;;;;;1999.90;999.90;;;;;;;;;;5009856;28;20195;-67
2023/12/03 05:34:56;;;;;;;1999.90;999.90;;;;;;;;;;5011026;28;20209;-67
2023/12/03 05:37:28;;;;;;;1999.90;999.90;;;;;;;;;;5010121;28;20745;-68
2023/12/03 05:39:56;;;;;;;1999.90;999.90;;;;;;;;;;5010243;28;20214;-66
2023/12/03 05:42:23;;;;;;;1999.90;999.90;;;;;;;;;;5013191;28;20197;-67
2023/12/03 05:44:50;;;;;;;1999.90;999.90;;;;;;;;;;5013070;28;20210;-66
2023/12/03 05:47:18;;;;;;;1999.90;999.90;;;;;;;;;;5014883;28;20200;-66
2023/12/03 05:49:47;;;;;;;1999.90;999.90;;;;;;;;;;5012657;28;20325;-66
2023/12/03 05:52:16;;;;;;;1999.90;999.90;;;;;;;;;;5014781;28;20645;-68
2023/12/03 05:54:43;;;;;;;1999.90;999.90;;;;;;;;;;5012515;28;20217;-66
2023/12/03 05:57:11;;;;;;;1999.90;999.90;;;;;;;;;;5013720;28;20205;-66
2023/12/03 05:59:38;;;;;;;1999.90;999.90;;;;;;;;;;5013188;28;20314;-67
2023/12/03 06:02:05;;;;;;;1999.90;999.90;;;;;;;;;;5012992;28;20221;-66
2023/12/03 06:04:32;;;;;;;1999.90;999.90;;;;;;;;;;5011097;28;20192;-65
2023/12/03 06:07:01;;;;;;;1999.90;999.90;;;;;;;;;;5012343;28;20211;-66
2023/12/03 06:09:29;;;;;;;1999.90;999.90;;;;;;;;;;5013326;28;20200;-66
2023/12/03 06:11:56;;;;;;;1999.90;999.90;;;;;;;;;;5012078;28;20193;-66
2023/12/03 06:14:23;;;;;;;1999.90;999.90;;;;;;;;;;5012880;28;20576;-66
2023/12/03 06:16:51;;;;;;;1999.90;999.90;;;;;;;;;;5012962;28;20206;-66
2023/12/03 06:19:18;;;;;;;1999.90;999.90;;;;;;;;;;5012424;28;20818;-66
2023/12/03 06:21:45;;;;;;;1999.90;999.90;;;;;;;;;;5013290;28;20200;-66
2023/12/03 06:24:14;;;;;;;1999.90;999.90;;;;;;;;;;5012436;28;20189;-66
2023/12/03 06:26:41;;;;;;;1999.90;999.90;;;;;;;;;;5030101;28;20199;-66
2023/12/03 06:29:09;;;;;;;1999.90;999.90;;;;;;;;;;5028392;28;20258;-67
2023/12/03 06:31:37;;;;;;;1999.90;999.90;;;;;;;;;;5028075;28;20208;-66
2023/12/03 06:34:04;;;;;;;1999.90;999.90;;;;;;;;;;5028277;28;20214;-68
2023/12/03 06:36:31;;;;;;;1999.90;999.90;;;;;;;;;;5029545;28;20204;-66
2023/12/03 06:38:59;;;;;;;1999.90;999.90;;;;;;;;;;5029072;28;20197;-68
2023/12/03 06:41:27;;;;;;;1999.90;999.90;;;;;;;;;;5029815;28;20193;-67
2023/12/03 06:43:56;;;;;;;1999.90;999.90;;;;;;;;;;5030257;28;20204;-66
2023/12/03 06:46:23;;;;;;;1999.90;999.90;;;;;;;;;;5028651;28;20203;-66
2023/12/03 06:48:50;;;;;;;1999.90;999.90;;;;;;;;;;5026633;28;20205;-67
2023/12/03 06:51:17;;;;;;;1999.90;999.90;;;;;;;;;;5029028;28;20220;-68
2023/12/03 06:53:45;;;;;;;1999.90;999.90;;;;;;;;;;5027768;28;20190;-69
2023/12/03 06:56:12;;;;;;;1999.90;999.90;;;;;;;;;;5029440;28;20197;-68
2023/12/03 06:58:41;;;;;;;1999.90;999.90;;;;;;;;;;5027861;28;20196;-67
2023/12/03 07:01:09;;;;;;;1999.90;999.90;;;;;;;;;;5027829;28;20191;-68
2023/12/03 07:03:36;;;;;;;1999.90;999.90;;;;;;;;;;5026510;28;20218;-68
2023/12/03 07:06:04;;;;;;;1999.90;999.90;;;;;;;;;;5016464;28;20201;-68
2023/12/03 07:08:31;;;;;;;1999.90;999.90;;;;;;;;;;5028165;28;20220;-66
2023/12/03 07:10:58;;;;;;;1999.90;999.90;;;;;;;;;;5027609;28;20194;-66
2023/12/03 07:13:26;;;;;;;1999.90;999.90;;;;;;;;;;5028286;28;20212;-66
2023/12/03 07:15:54;;;;;;;1999.90;999.90;;;;;;;;;;5024895;28;20585;-66
2023/12/03 07:18:22;;;;;;;1999.90;999.90;;;;;;;;;;5028003;28;20192;-66
2023/12/03 07:20:49;;;;;;;1999.90;999.90;;;;;;;;;;5027247;28;20205;-66
2023/12/03 07:23:16;;;;;;;1999.90;999.90;;;;;;;;;;5025496;28;20205;-66
2023/12/03 07:25:44;;;;;;;1999.90;999.90;;;;;;;;;;5025365;28;20208;-66
2023/12/03 07:28:11;;;;;;;1999.90;999.90;;;;;;;;;;5024197;28;20207;-66
2023/12/03 07:30:39;;;;;;;1999.90;999.90;;;;;;;;;;5026512;28;20205;-66
2023/12/03 07:33:07;;;;;;;1999.90;999.90;;;;;;;;;;5026990;28;20261;-66
2023/12/03 07:35:35;;;;;;;1999.90;999.90;;;;;;;;;;5027468;28;20216;-66
2023/12/03 07:38:02;;;;;;;1999.90;999.90;;;;;;;;;;5026472;28;20204;-66
2023/12/03 07:40:29;;;;;;;1999.90;999.90;;;;;;;;;;5027548;28;20200;-66
2023/12/03 07:42:56;;;;;;;1999.90;999.90;;;;;;;;;;5027211;28;20197;-66
2023/12/03 07:45:24;;;;;;;1999.90;999.90;;;;;;;;;;5013021;28;20208;-66
2023/12/03 07:47:51;;;;;;;1999.90;999.90;;;;;;;;;;5026235;28;20202;-66
2023/12/03 07:50:20;;;;;;;1999.90;999.90;;;;;;;;;;5023668;28;20204;-66
2023/12/03 07:52:47;;;;;;;1999.90;999.90;;;;;;;;;;5011844;28;20201;-66
2023/12/03 07:55:16;;;;;;;1999.90;999.90;;;;;;;;;;5025887;28;20224;-67
2023/12/03 07:57:43;;;;;;;1999.90;999.90;;;;;;;;;;5011262;28;20195;-65
2023/12/03 08:00:11;;;;;;;1999.90;999.90;;;;;;;;;;5010090;28;20245;-65
2023/12/03 08:02:39;;;;;;;1999.90;999.90;;;;;;;;;;5009491;28;20193;-66
2023/12/03 08:05:06;;;;;;;1999.90;999.90;;;;;;;;;;5009862;28;20911;-66
2023/12/03 08:07:35;;;;;;;1999.90;999.90;;;;;;;;;;5009327;28;20196;-66
2023/12/03 08:10:02;;;;;;;1999.90;999.90;;;;;;;;;;5009939;28;20266;-66
2023/12/03 08:12:30;;;;;;;1999.90;999.90;;;;;;;;;;5009225;28;20201;-66
2023/12/03 08:14:57;;;;;;;1999.90;999.90;;;;;;;;;;5007955;28;20229;-66
2023/12/03 08:17:24;;;;;;;1999.90;999.90;;;;;;;;;;5014037;28;20201;-66
2023/12/03 08:19:52;;;;;;;1999.90;999.90;;;;;;;;;;5019086;28;20202;-66
2023/12/03 08:22:19;;;;;;;1999.90;999.90;;;;;;;;;;5008428;28;20194;-66
2023/12/03 08:24:48;;;;;;;1999.90;999.90;;;;;;;;;;5009127;28;20201;-66
2023/12/03 08:27:15;;;;;;;1999.90;999.90;;;;;;;;;;5009794;28;20198;-67
2023/12/03 08:29:43;;;;;;;1999.90;999.90;;;;;;;;;;5007415;28;20294;-65
2023/12/03 08:32:10;;;;;;;1999.90;999.90;;;;;;;;;;5009404;28;20202;-66
2023/12/03 08:34:37;;;;;;;1999.90;999.90;;;;;;;;;;5008885;28;20334;-66
2023/12/03 08:37:05;;;;;;;1999.90;999.90;;;;;;;;;;5007095;28;20202;-66
2023/12/03 08:39:32;;;;;;;1999.90;999.90;;;;;;;;;;5009547;28;20706;-66
2023/12/03 08:42:02;;;;;;;1999.90;999.90;;;;;;;;;;5006957;28;20661;-66
2023/12/03 08:44:29;;;;;;;1999.90;999.90;;;;;;;;;;5009400;28;20264;-66
2023/12/03 08:46:56;;;;;;;1999.90;999.90;;;;;;;;;;5007687;28;20833;-65
2023/12/03 08:49:24;;;;;;;1999.90;999.90;;;;;;;;;;5009897;28;20191;-66
2023/12/03 08:51:51;;;;;;;1999.90;999.90;;;;;;;;;;5007430;28;20654;-67
2023/12/03 08:54:19;;;;;;;1999.90;999.90;;;;;;;;;;5024275;28;20663;-65
2023/12/03 08:56:46;;;;;;;1999.90;999.90;;;;;;;;;;5008492;28;20202;-66
2023/12/03 08:59:15;;;;;;;1999.90;999.90;;;;;;;;;;5008478;28;20254;-66
2023/12/03 09:01:42;;;;;;;1999.90;999.90;;;;;;;;;;5016634;28;20197;-66
2023/12/03 09:04:10;;;;;;;1999.90;999.90;;;;;;;;;;5017251;28;20198;-66
2023/12/03 09:06:37;;;;;;;1999.90;999.90;;;;;;;;;;5008872;28;20600;-66
2023/12/03 09:09:04;;;;;;;1999.90;999.90;;;;;;;;;;5007981;28;20197;-66
2023/12/03 09:11:32;;;;;;;1999.90;999.90;;;;;;;;;;5008574;28;20203;-66
2023/12/03 09:13:59;;;;;;;1999.90;999.90;;;;;;;;;;5008907;28;20203;-66
2023/12/03 09:16:28;;;;;;;1999.90;999.90;;;;;;;;;;5009227;28;20222;-66
2023/12/03 09:18:55;;;;;;;1999.90;999.90;;;;;;;;;;5013395;28;20189;-66
2023/12/03 09:21:23;;;;;;;1999.90;999.90;;;;;;;;;;5012588;28;20207;-66
2023/12/03 09:23:51;;;;;;;1999.90;999.90;;;;;;;;;;5013481;28;20224;-66
2023/12/03 09:26:18;;;;;;;1999.90;999.90;;;;;;;;;;5011085;28;20193;-66
2023/12/03 09:28:45;;;;;;;1999.90;999.90;;;;;;;;;;5013009;28;20214;-66
2023/12/03 09:31:13;;;;;;;1999.90;999.90;;;;;;;;;;5010818;28;20656;-65
2023/12/03 09:33:41;;;;;;;1999.90;999.90;;;;;;;;;;5012161;28;20200;-66
2023/12/03 09:36:09;;;;;;;1999.90;999.90;;;;;;;;;;5012137;28;20272;-65
2023/12/03 09:38:36;;;;;;;1999.90;999.90;;;;;;;;;;5011616;28;20207;-65
2023/12/03 09:41:07;;;;;;;1999.90;999.90;;;;;;;;;;5012233;28;20193;-66
2023/12/03 09:43:35;;;;;;;1999.90;999.90;;;;;;;;;;5011993;28;20196;-67
2023/12/03 09:46:03;;;;;;;1999.90;999.90;;;;;;;;;;5011976;28;20184;-68
2023/12/03 09:48:31;;;;;;;1999.90;999.90;;;;;;;;;;5021931;28;20201;-66
2023/12/03 09:51:01;;;;;;;1999.90;999.90;;;;;;;;;;5027929;28;21008;-65
2023/12/03 09:53:31;;;;;;;1999.90;999.90;;;;;;;;;;5014955;28;20202;-65
2023/12/03 09:55:59;;;;;;;1999.90;999.90;;;;;;;;;;5012984;28;20250;-65
2023/12/03 09:58:26;;;;;;;1999.90;999.90;;;;;;;;;;5022450;28;20203;-65
2023/12/03 10:00:55;;;;;;;1999.90;999.90;;;;;;;;;;5017217;28;20197;-65
2023/12/03 10:03:22;;;;;;;1999.90;999.90;;;;;;;;;;5017990;28;20207;-65
2023/12/03 10:05:50;;;;;;;1999.90;999.90;;;;;;;;;;5011934;28;20201;-66
2023/12/03 10:08:19;;;;;;;1999.90;999.90;;;;;;;;;;5011450;28;20207;-66
2023/12/03 10:10:48;;;;;;;1999.90;999.90;;;;;;;;;;5012714;28;20741;-65
2023/12/03 10:13:16;;;;;;;1999.90;999.90;;;;;;;;;;5011213;28;20206;-65
2023/12/03 10:15:43;;;;;;;1999.90;999.90;;;;;;;;;;5012184;28;20216;-66
2023/12/03 10:18:10;;;;;;;1999.90;999.90;;;;;;;;;;5010563;28;20201;-66
2023/12/03 10:20:39;;;;;;;1999.90;999.90;;;;;;;;;;5010842;28;20192;-66
2023/12/03 10:23:14;;;;;;;1999.90;999.90;;;;;;;;;;5009784;28;20204;-66
2023/12/03 10:25:43;;;;;;;1999.90;999.90;;;;;;;;;;5010729;28;20180;-67
2023/12/03 10:28:10;;;;;;;1999.90;999.90;;;;;;;;;;5010443;28;20213;-67
2023/12/03 10:30:38;;;;;;;1999.90;999.90;;;;;;;;;;5009995;28;20571;-67
2023/12/03 10:33:05;;;;;;;1999.90;999.90;;;;;;;;;;5010660;28;20549;-67
2023/12/03 10:35:34;;;;;;;1999.90;999.90;;;;;;;;;;5009640;28;20571;-68
2023/12/03 10:38:07;;;;;;;1999.90;999.90;;;;;;;;;;5011456;28;20259;-67
2023/12/03 10:40:35;;;;;;;1999.90;999.90;;;;;;;;;;5012264;28;20209;-66
2023/12/03 10:43:05;;;;;;;1999.90;999.90;;;;;;;;;;5011926;28;20188;-66
2023/12/03 10:45:32;;;;;;;1999.90;999.90;;;;;;;;;;5011328;28;20197;-66
2023/12/03 10:48:01;;;;;;;1999.90;999.90;;;;;;;;;;5010964;28;20595;-66
2023/12/03 10:50:29;;;;;;;1999.90;999.90;;;;;;;;;;5011713;28;20201;-66
2023/12/03 10:52:58;;;;;;;1999.90;999.90;;;;;;;;;;5011282;28;21055;-67
2023/12/03 10:55:26;;;;;;;1999.90;999.90;;;;;;;;;;5011052;28;20213;-66
2023/12/03 10:57:56;;;;;;;1999.90;999.90;;;;;;;;;;5011217;28;20208;-66
2023/12/03 11:00:26;;;;;;;1999.90;999.90;;;;;;;;;;5010320;28;20320;-66
2023/12/03 11:02:56;;;;;;;1999.90;999.90;;;;;;;;;;5010946;28;20275;-66
2023/12/03 11:05:26;;;;;;;1999.90;999.90;;;;;;;;;;5010317;28;21355;-66
2023/12/03 11:07:54;;;;;;;1999.90;999.90;;;;;;;;;;5011146;28;20582;-65
2023/12/03 11:10:22;;;;;;;1999.90;999.90;;;;;;;;;;5010532;28;20211;-66
2023/12/03 11:12:49;;;;;;;1999.90;999.90;;;;;;;;;;5016240;28;20634;-68
2023/12/03 11:15:17;;;;;;;1999.90;999.90;;;;;;;;;;5024143;28;20242;-67
2023/12/03 11:17:46;;;;;;;1999.90;999.90;;;;;;;;;;5025790;28;20204;-68
2023/12/03 11:20:16;;;;;;;1999.90;999.90;;;;;;;;;;5025652;28;20575;-67
2023/12/03 11:22:51;;;;;;;1999.90;999.90;;;;;;;;;;5026737;28;20206;-68
2023/12/03 11:25:21;;;;;;;1999.90;999.90;;;;;;;;;;5019273;28;20204;-67
2023/12/03 11:27:48;;;;;;;1999.90;999.90;;;;;;;;;;5026780;28;20210;-67
2023/12/03 11:30:16;;;;;;;1999.90;999.90;;;;;;;;;;5025874;28;20273;-67
2023/12/03 11:32:43;;;;;;;1999.90;999.90;;;;;;;;;;5027195;28;20271;-67
2023/12/03 11:35:16;;;;;;;1999.90;999.90;;;;;;;;;;5026372;28;20207;-67
2023/12/03 11:37:44;;;;;;;1999.90;999.90;;;;;;;;;;5026608;28;20191;-67
2023/12/03 11:40:12;;;;;;;1999.90;999.90;;;;;;;;;;5025753;28;20213;-66
2023/12/03 11:42:45;;;;;;;1999.90;999.90;;;;;;;;;;5026850;28;20207;-66
2023/12/03 11:45:23;;;;;;;1999.90;999.90;;;;;;;;;;5017793;28;21562;-65
2023/12/03 11:48:05;;;;;;;1999.90;999.90;;;;;;;;;;5008690;28;20207;-66
2023/12/03 11:50:35;;;;;;;1999.90;999.90;;;;;;;;;;5010206;28;20201;-66
2023/12/03 11:53:02;;;;;;;1999.90;999.90;;;;;;;;;;5009775;28;20232;-66
2023/12/03 11:55:30;;;;;;;1999.90;999.90;;;;;;;;;;5008986;28;20714;-66
2023/12/03 11:57:58;;;;;;;1999.90;999.90;;;;;;;;;;5010371;28;20775;-66
2023/12/03 12:00:25;;;;;;;1999.90;999.90;;;;;;;;;;5010064;28;20240;-66
2023/12/03 12:02:52;;;;;;;1999.90;999.90;;;;;;;;;;5010060;28;20194;-66
2023/12/03 12:05:20;;;;;;;1999.90;999.90;;;;;;;;;;5009027;28;20192;-65
2023/12/03 12:07:58;;;;;;;1999.90;999.90;;;;;;;;;;5010305;28;20586;-66
2023/12/03 12:10:25;;;;;;;1999.90;999.90;;;;;;;;;;5009135;28;20283;-67
2023/12/03 12:12:53;;;;;;;1999.90;999.90;;;;;;;;;;5011069;28;20193;-66
2023/12/03 12:15:20;;;;;;;1999.90;999.90;;;;;;;;;;5013138;28;20204;-67
2023/12/03 12:17:48;;;;;;;1999.90;999.90;;;;;;;;;;5012042;28;20197;-66
2023/12/03 12:20:23;;;;;;;1999.90;999.90;;;;;;;;;;5020452;28;20204;-66
2023/12/03 12:22:51;;;;;;;1999.90;999.90;;;;;;;;;;5023199;28;20206;-67
2023/12/03 12:25:20;;;;;;;1999.90;999.90;;;;;;;;;;5024577;28;20278;-66
2023/12/03 12:27:47;;;;;;;1999.90;999.90;;;;;;;;;;5023983;28;20208;-66
2023/12/03 12:30:15;;;;;;;1999.90;999.90;;;;;;;;;;5026695;28;20189;-66
2023/12/03 12:32:43;;;;;;;1999.90;999.90;;;;;;;;;;5026522;28;20208;-66
2023/12/03 12:35:10;;;;;;;1999.90;999.90;;;;;;;;;;5026123;28;20196;-69
2023/12/03 12:37:38;;;;;;;1999.90;999.90;;;;;;;;;;5026191;28;20564;-68
2023/12/03 12:40:09;;;;;;;1999.90;999.90;;;;;;;;;;5025898;28;20192;-67
2023/12/03 12:42:40;;;;;;;1999.90;999.90;;;;;;;;;;5026513;28;20200;-70
2023/12/03 12:45:12;;;;;;;1999.90;999.90;;;;;;;;;;5025838;28;20264;-68
2023/12/03 12:47:39;;;;;;;1999.90;999.90;;;;;;;;;;5026386;28;20263;-66
2023/12/03 12:50:07;;;;;;;1999.90;999.90;;;;;;;;;;5024276;28;20200;-66
2023/12/03 12:52:35;;;;;;;1999.90;999.90;;;;;;;;;;5025182;28;20203;-70
2023/12/03 12:55:04;;;;;;;1999.90;999.90;;;;;;;;;;5026349;28;20328;-66
2023/12/03 12:57:33;;;;;;;1999.90;999.90;;;;;;;;;;5023357;28;20242;-66
2023/12/03 13:00:02;;;;;;;1999.90;999.90;;;;;;;;;;5025068;28;20608;-72
2023/12/03 13:02:29;;;;;;;1999.90;999.90;;;;;;;;;;5025448;28;20679;-67
2023/12/03 13:04:57;;;;;;;1999.90;999.90;;;;;;;;;;5024931;28;20255;-67
2023/12/03 13:07:24;;;;;;;1999.90;999.90;;;;;;;;;;5025345;28;20195;-67
2023/12/03 13:09:51;;;;;;;1999.90;999.90;;;;;;;;;;5025977;28;20200;-68
2023/12/03 13:12:19;;;;;;;1999.90;999.90;;;;;;;;;;5026374;28;20200;-67
2023/12/03 13:14:46;;;;;;;1999.90;999.90;;;;;;;;;;5025430;28;20197;-68
2023/12/03 13:17:15;;;;;;;1999.90;999.90;;;;;;;;;;5026303;28;20208;-67
2023/12/03 13:19:42;;;;;;;1999.90;999.90;;;;;;;;;;5024463;28;20196;-67
2023/12/03 13:22:10;;;;;;;1999.90;999.90;;;;;;;;;;5026670;28;20207;-67
2023/12/03 13:24:37;;;;;;;1999.90;999.90;;;;;;;;;;5025044;28;20199;-66
2023/12/03 13:27:06;;;;;;;1999.90;999.90;;;;;;;;;;5024272;28;20203;-67
2023/12/03 13:29:33;;;;;;;1999.90;999.90;;;;;;;;;;5024079;28;20205;-67
2023/12/03 13:32:00;;;;;;;1999.90;999.90;;;;;;;;;;5024643;28;20783;-65
2023/12/03 13:34:30;;;;;;;1999.90;999.90;;;;;;;;;;5024690;28;20199;-66
2023/12/03 13:36:57;;;;;;;1999.90;999.90;;;;;;;;;;5023520;28;20235;-67
2023/12/03 13:39:24;;;;;;;1999.90;999.90;;;;;;;;;;5024406;28;20222;-67
2023/12/03 13:41:52;;;;;;;1999.90;999.90;;;;;;;;;;5025534;28;20188;-67
2023/12/03 13:44:20;;;;;;;1999.90;999.90;;;;;;;;;;5025868;28;20668;-69